sensor_id;sensor_type;location;lat;lon;timestamp;P1;durP1;ratioP1;P2;durP2;ratioP2
24813;SDS011;12904;50.088;11.414;2023-06-14T00:00:41;5.10;;;4.70;;
24813;SDS011;12904;50.088;11.414;2023-06-14T00:03:08;6.28;;;5.25;;
24813;SDS011;12904;50.088;11.414;2023-06-14T00:05:35;6.70;;;4.18;;
24813;SDS011;12904;50.088;11.414;2023-06-14T00:08:06;5.35;;;4.65;;
24813;SDS011;12904;50.088;11.414;2023-06-14T00:10:35;10.02;;;5.25;;
24813;SDS011;12904;50.088;11.414;2023-06-14T00:13:01;5.88;;;5.38;;
24813;SDS011;12904;50.088;11.414;2023-06-14T00:15:33;6.50;;;5.32;;
24813;SDS011;12904;50.088;11.414;2023-06-14T00:17:59;6.63;;;5.10;;
24813;SDS011;12904;50.088;11.414;2023-06-14T00:20:29;6.75;;;6.10;;
24813;SDS011;12904;50.088;11.414;2023-06-14T00:22:55;5.65;;;5.25;;
24813;SDS011;12904;50.088;11.414;2023-06-14T00:25:24;5.75;;;5.25;;
24813;SDS011;12904;50.088;11.414;2023-06-14T00:27:50;5.43;;;4.85;;
24813;SDS011;12904;50.088;11.414;2023-06-14T00:30:17;9.43;;;5.35;;
24813;SDS011;12904;50.088;11.414;2023-06-14T00:32:43;5.57;;;4.53;;
24813;SDS011;12904;50.088;11.414;2023-06-14T00:35:09;5.60;;;5.10;;
24813;SDS011;12904;50.088;11.414;2023-06-14T00:37:35;5.57;;;5.10;;
24813;SDS011;12904;50.088;11.414;2023-06-14T00:40:01;8.35;;;5.07;;
24813;SDS011;12904;50.088;11.414;2023-06-14T00:42:29;6.05;;;5.47;;
24813;SDS011;12904;50.088;11.414;2023-06-14T00:44:55;7.53;;;4.78;;
24813;SDS011;12904;50.088;11.414;2023-06-14T00:47:20;5.05;;;4.55;;
24813;SDS011;12904;50.088;11.414;2023-06-14T00:49:47;5.15;;;3.88;;
24813;SDS011;12904;50.088;11.414;2023-06-14T00:52:13;7.22;;;4.60;;
24813;SDS011;12904;50.088;11.414;2023-06-14T00:54:40;5.40;;;4.80;;
24813;SDS011;12904;50.088;11.414;2023-06-14T00:57:07;4.80;;;4.50;;
24813;SDS011;12904;50.088;11.414;2023-06-14T00:59:33;5.55;;;5.15;;
24813;SDS011;12904;50.088;11.414;2023-06-14T01:02:02;7.78;;;5.22;;
24813;SDS011;12904;50.088;11.414;2023-06-14T01:04:28;6.63;;;5.22;;
24813;SDS011;12904;50.088;11.414;2023-06-14T01:07:15;5.93;;;5.40;;
24813;SDS011;12904;50.088;11.414;2023-06-14T01:15:23;8.07;;;5.47;;
24813;SDS011;12904;50.088;11.414;2023-06-14T01:17:50;6.03;;;5.40;;
24813;SDS011;12904;50.088;11.414;2023-06-14T01:20:16;5.88;;;5.35;;
24813;SDS011;12904;50.088;11.414;2023-06-14T01:22:51;7.75;;;5.22;;
24813;SDS011;12904;50.088;11.414;2023-06-14T01:25:18;6.70;;;5.50;;
24813;SDS011;12904;50.088;11.414;2023-06-14T01:27:58;10.95;;;5.72;;
24813;SDS011;12904;50.088;11.414;2023-06-14T01:30:27;6.38;;;5.38;;
24813;SDS011;12904;50.088;11.414;2023-06-14T01:32:54;5.47;;;5.07;;
24813;SDS011;12904;50.088;11.414;2023-06-14T01:35:21;6.93;;;6.30;;
24813;SDS011;12904;50.088;11.414;2023-06-14T01:37:47;6.93;;;5.95;;
24813;SDS011;12904;50.088;11.414;2023-06-14T01:40:14;6.38;;;5.20;;
24813;SDS011;12904;50.088;11.414;2023-06-14T01:42:40;6.30;;;5.13;;
24813;SDS011;12904;50.088;11.414;2023-06-14T01:45:07;8.43;;;5.07;;
24813;SDS011;12904;50.088;11.414;2023-06-14T01:47:35;7.80;;;6.43;;
24813;SDS011;12904;50.088;11.414;2023-06-14T01:50:04;6.78;;;6.28;;
24813;SDS011;12904;50.088;11.414;2023-06-14T01:52:30;6.65;;;5.95;;
24813;SDS011;12904;50.088;11.414;2023-06-14T01:54:56;6.72;;;6.20;;
24813;SDS011;12904;50.088;11.414;2023-06-14T01:57:23;7.00;;;6.28;;
24813;SDS011;12904;50.088;11.414;2023-06-14T01:59:50;11.73;;;6.10;;
24813;SDS011;12904;50.088;11.414;2023-06-14T02:02:15;7.05;;;5.75;;
24813;SDS011;12904;50.088;11.414;2023-06-14T02:04:41;6.63;;;6.03;;
24813;SDS011;12904;50.088;11.414;2023-06-14T02:07:07;7.20;;;6.53;;
24813;SDS011;12904;50.088;11.414;2023-06-14T02:09:33;6.82;;;6.18;;
24813;SDS011;12904;50.088;11.414;2023-06-14T02:11:59;6.25;;;5.65;;
24813;SDS011;12904;50.088;11.414;2023-06-14T02:14:25;7.68;;;6.35;;
24813;SDS011;12904;50.088;11.414;2023-06-14T02:16:52;6.28;;;5.68;;
24813;SDS011;12904;50.088;11.414;2023-06-14T02:19:18;8.57;;;6.45;;
24813;SDS011;12904;50.088;11.414;2023-06-14T02:21:45;6.63;;;6.00;;
24813;SDS011;12904;50.088;11.414;2023-06-14T02:24:11;6.93;;;6.07;;
24813;SDS011;12904;50.088;11.414;2023-06-14T02:26:37;7.05;;;6.38;;
24813;SDS011;12904;50.088;11.414;2023-06-14T02:29:04;10.43;;;6.28;;
24813;SDS011;12904;50.088;11.414;2023-06-14T02:31:40;6.70;;;6.10;;
24813;SDS011;12904;50.088;11.414;2023-06-14T02:34:06;6.95;;;6.43;;
24813;SDS011;12904;50.088;11.414;2023-06-14T02:36:33;6.47;;;5.85;;
24813;SDS011;12904;50.088;11.414;2023-06-14T02:38:59;7.07;;;6.38;;
24813;SDS011;12904;50.088;11.414;2023-06-14T02:41:25;7.88;;;5.93;;
24813;SDS011;12904;50.088;11.414;2023-06-14T02:43:52;7.30;;;6.70;;
24813;SDS011;12904;50.088;11.414;2023-06-14T02:46:18;6.93;;;6.35;;
24813;SDS011;12904;50.088;11.414;2023-06-14T02:48:43;10.48;;;6.65;;
24813;SDS011;12904;50.088;11.414;2023-06-14T02:51:10;6.63;;;6.07;;
24813;SDS011;12904;50.088;11.414;2023-06-14T02:53:35;7.82;;;6.70;;
24813;SDS011;12904;50.088;11.414;2023-06-14T02:56:05;6.88;;;6.18;;
24813;SDS011;12904;50.088;11.414;2023-06-14T02:58:31;8.02;;;6.47;;
24813;SDS011;12904;50.088;11.414;2023-06-14T03:00:58;6.57;;;5.97;;
24813;SDS011;12904;50.088;11.414;2023-06-14T03:03:29;8.38;;;6.57;;
24813;SDS011;12904;50.088;11.414;2023-06-14T03:05:55;9.10;;;6.30;;
24813;SDS011;12904;50.088;11.414;2023-06-14T03:08:21;7.15;;;6.55;;
24813;SDS011;12904;50.088;11.414;2023-06-14T03:10:52;8.00;;;7.13;;
24813;SDS011;12904;50.088;11.414;2023-06-14T03:13:18;8.35;;;7.65;;
24813;SDS011;12904;50.088;11.414;2023-06-14T03:15:47;6.65;;;6.15;;
24813;SDS011;12904;50.088;11.414;2023-06-14T03:18:15;7.18;;;6.47;;
24813;SDS011;12904;50.088;11.414;2023-06-14T03:20:44;8.25;;;7.45;;
24813;SDS011;12904;50.088;11.414;2023-06-14T03:23:11;12.48;;;7.43;;
24813;SDS011;12904;50.088;11.414;2023-06-14T03:25:37;7.18;;;6.57;;
24813;SDS011;12904;50.088;11.414;2023-06-14T03:28:06;7.38;;;6.07;;
24813;SDS011;12904;50.088;11.414;2023-06-14T03:30:32;7.13;;;6.53;;
24813;SDS011;12904;50.088;11.414;2023-06-14T03:32:58;7.47;;;6.75;;
24813;SDS011;12904;50.088;11.414;2023-06-14T03:35:26;7.43;;;6.57;;
24813;SDS011;12904;50.088;11.414;2023-06-14T03:37:52;7.75;;;6.68;;
24813;SDS011;12904;50.088;11.414;2023-06-14T03:40:18;8.60;;;7.07;;
24813;SDS011;12904;50.088;11.414;2023-06-14T03:42:45;7.65;;;7.05;;
24813;SDS011;12904;50.088;11.414;2023-06-14T03:45:10;7.85;;;7.15;;
24813;SDS011;12904;50.088;11.414;2023-06-14T03:47:36;6.97;;;6.32;;
24813;SDS011;12904;50.088;11.414;2023-06-14T03:50:02;8.02;;;7.20;;
24813;SDS011;12904;50.088;11.414;2023-06-14T03:52:29;7.85;;;7.07;;
24813;SDS011;12904;50.088;11.414;2023-06-14T03:54:55;7.60;;;6.00;;
24813;SDS011;12904;50.088;11.414;2023-06-14T03:57:21;6.75;;;6.15;;
24813;SDS011;12904;50.088;11.414;2023-06-14T03:59:48;7.10;;;6.50;;
24813;SDS011;12904;50.088;11.414;2023-06-14T04:02:13;8.25;;;7.45;;
24813;SDS011;12904;50.088;11.414;2023-06-14T04:04:42;7.13;;;6.35;;
24813;SDS011;12904;50.088;11.414;2023-06-14T04:07:13;15.38;;;6.78;;
24813;SDS011;12904;50.088;11.414;2023-06-14T04:09:45;6.90;;;6.40;;
24813;SDS011;12904;50.088;11.414;2023-06-14T04:12:11;8.57;;;6.72;;
24813;SDS011;12904;50.088;11.414;2023-06-14T04:14:40;6.93;;;6.32;;
24813;SDS011;12904;50.088;11.414;2023-06-14T04:17:06;6.53;;;6.00;;
24813;SDS011;12904;50.088;11.414;2023-06-14T04:19:31;7.30;;;6.55;;
24813;SDS011;12904;50.088;11.414;2023-06-14T04:21:58;7.20;;;6.68;;
24813;SDS011;12904;50.088;11.414;2023-06-14T04:24:27;6.90;;;6.30;;
24813;SDS011;12904;50.088;11.414;2023-06-14T04:26:57;7.57;;;6.88;;
24813;SDS011;12904;50.088;11.414;2023-06-14T04:29:23;7.82;;;7.03;;
24813;SDS011;12904;50.088;11.414;2023-06-14T04:31:51;8.38;;;7.30;;
24813;SDS011;12904;50.088;11.414;2023-06-14T04:34:18;7.70;;;7.00;;
24813;SDS011;12904;50.088;11.414;2023-06-14T04:36:44;8.13;;;7.10;;
24813;SDS011;12904;50.088;11.414;2023-06-14T04:39:14;8.20;;;6.93;;
24813;SDS011;12904;50.088;11.414;2023-06-14T04:41:47;8.50;;;7.90;;
24813;SDS011;12904;50.088;11.414;2023-06-14T04:44:16;9.23;;;6.95;;
24813;SDS011;12904;50.088;11.414;2023-06-14T04:46:43;8.02;;;7.38;;
24813;SDS011;12904;50.088;11.414;2023-06-14T04:49:12;8.23;;;7.53;;
24813;SDS011;12904;50.088;11.414;2023-06-14T04:51:41;8.07;;;7.38;;
24813;SDS011;12904;50.088;11.414;2023-06-14T04:54:08;8.43;;;7.63;;
24813;SDS011;12904;50.088;11.414;2023-06-14T04:56:40;12.68;;;8.18;;
24813;SDS011;12904;50.088;11.414;2023-06-14T04:59:07;10.65;;;7.70;;
24813;SDS011;12904;50.088;11.414;2023-06-14T05:01:33;6.93;;;6.38;;
24813;SDS011;12904;50.088;11.414;2023-06-14T05:03:59;7.13;;;6.38;;
24813;SDS011;12904;50.088;11.414;2023-06-14T05:06:25;6.25;;;5.72;;
24813;SDS011;12904;50.088;11.414;2023-06-14T05:08:52;5.93;;;5.32;;
24813;SDS011;12904;50.088;11.414;2023-06-14T05:11:18;12.43;;;5.82;;
24813;SDS011;12904;50.088;11.414;2023-06-14T05:13:44;7.50;;;5.40;;
24813;SDS011;12904;50.088;11.414;2023-06-14T05:16:10;5.82;;;5.22;;
24813;SDS011;12904;50.088;11.414;2023-06-14T05:18:36;6.00;;;5.45;;
24813;SDS011;12904;50.088;11.414;2023-06-14T05:21:03;6.25;;;5.75;;
24813;SDS011;12904;50.088;11.414;2023-06-14T05:23:32;5.88;;;5.25;;
24813;SDS011;12904;50.088;11.414;2023-06-14T05:25:57;5.70;;;5.03;;
24813;SDS011;12904;50.088;11.414;2023-06-14T05:28:23;5.82;;;5.30;;
24813;SDS011;12904;50.088;11.414;2023-06-14T05:30:49;4.88;;;4.47;;
24813;SDS011;12904;50.088;11.414;2023-06-14T05:33:16;5.22;;;4.72;;
24813;SDS011;12904;50.088;11.414;2023-06-14T05:35:42;5.72;;;5.05;;
24813;SDS011;12904;50.088;11.414;2023-06-14T05:38:07;7.28;;;5.13;;
24813;SDS011;12904;50.088;11.414;2023-06-14T05:40:33;5.45;;;4.95;;
24813;SDS011;12904;50.088;11.414;2023-06-14T05:42:59;5.45;;;4.63;;
24813;SDS011;12904;50.088;11.414;2023-06-14T05:45:24;6.70;;;4.07;;
24813;SDS011;12904;50.088;11.414;2023-06-14T05:47:50;5.95;;;4.90;;
24813;SDS011;12904;50.088;11.414;2023-06-14T05:50:17;6.40;;;5.57;;
24813;SDS011;12904;50.088;11.414;2023-06-14T05:52:42;8.75;;;4.88;;
24813;SDS011;12904;50.088;11.414;2023-06-14T05:55:08;5.57;;;4.47;;
24813;SDS011;12904;50.088;11.414;2023-06-14T05:57:36;11.80;;;5.50;;
24813;SDS011;12904;50.088;11.414;2023-06-14T06:00:02;5.32;;;4.82;;
24813;SDS011;12904;50.088;11.414;2023-06-14T06:02:40;5.57;;;4.38;;
24813;SDS011;12904;50.088;11.414;2023-06-14T06:05:07;6.50;;;4.57;;
24813;SDS011;12904;50.088;11.414;2023-06-14T06:07:33;5.95;;;4.78;;
24813;SDS011;12904;50.088;11.414;2023-06-14T06:09:59;6.20;;;5.25;;
24813;SDS011;12904;50.088;11.414;2023-06-14T06:12:25;7.00;;;5.07;;
24813;SDS011;12904;50.088;11.414;2023-06-14T06:14:50;6.72;;;4.97;;
24813;SDS011;12904;50.088;11.414;2023-06-14T06:17:16;5.93;;;5.32;;
24813;SDS011;12904;50.088;11.414;2023-06-14T06:19:41;6.13;;;4.20;;
24813;SDS011;12904;50.088;11.414;2023-06-14T06:22:07;10.65;;;4.88;;
24813;SDS011;12904;50.088;11.414;2023-06-14T06:24:33;4.78;;;4.35;;
24813;SDS011;12904;50.088;11.414;2023-06-14T06:26:58;5.43;;;4.93;;
24813;SDS011;12904;50.088;11.414;2023-06-14T06:29:25;5.85;;;3.88;;
24813;SDS011;12904;50.088;11.414;2023-06-14T06:31:51;6.32;;;4.40;;
24813;SDS011;12904;50.088;11.414;2023-06-14T06:34:16;6.38;;;4.03;;
24813;SDS011;12904;50.088;11.414;2023-06-14T06:36:42;5.38;;;4.35;;
24813;SDS011;12904;50.088;11.414;2023-06-14T06:39:08;10.85;;;4.40;;
24813;SDS011;12904;50.088;11.414;2023-06-14T06:41:37;5.00;;;4.22;;
24813;SDS011;12904;50.088;11.414;2023-06-14T06:44:05;5.85;;;4.40;;
24813;SDS011;12904;50.088;11.414;2023-06-14T06:46:31;4.05;;;3.65;;
24813;SDS011;12904;50.088;11.414;2023-06-14T06:48:57;6.25;;;4.45;;
24813;SDS011;12904;50.088;11.414;2023-06-14T06:51:23;3.53;;;3.22;;
24813;SDS011;12904;50.088;11.414;2023-06-14T06:53:52;4.05;;;3.65;;
24813;SDS011;12904;50.088;11.414;2023-06-14T06:56:19;4.03;;;3.28;;
24813;SDS011;12904;50.088;11.414;2023-06-14T06:58:45;5.70;;;3.63;;
24813;SDS011;12904;50.088;11.414;2023-06-14T07:01:10;3.88;;;3.40;;
24813;SDS011;12904;50.088;11.414;2023-06-14T07:03:36;4.50;;;3.30;;
24813;SDS011;12904;50.088;11.414;2023-06-14T07:06:02;4.07;;;3.60;;
24813;SDS011;12904;50.088;11.414;2023-06-14T07:08:28;7.88;;;3.97;;
24813;SDS011;12904;50.088;11.414;2023-06-14T07:10:54;9.25;;;3.58;;
24813;SDS011;12904;50.088;11.414;2023-06-14T07:13:20;3.30;;;3.00;;
24813;SDS011;12904;50.088;11.414;2023-06-14T07:15:46;5.38;;;3.35;;
24813;SDS011;12904;50.088;11.414;2023-06-14T07:18:12;3.58;;;3.28;;
24813;SDS011;12904;50.088;11.414;2023-06-14T07:20:40;6.00;;;3.13;;
24813;SDS011;12904;50.088;11.414;2023-06-14T07:23:07;5.15;;;3.97;;
24813;SDS011;12904;50.088;11.414;2023-06-14T07:25:33;2.92;;;2.63;;
24813;SDS011;12904;50.088;11.414;2023-06-14T07:27:59;6.00;;;3.42;;
24813;SDS011;12904;50.088;11.414;2023-06-14T07:30:24;3.90;;;3.45;;
24813;SDS011;12904;50.088;11.414;2023-06-14T07:32:52;4.35;;;3.15;;
24813;SDS011;12904;50.088;11.414;2023-06-14T07:35:18;8.25;;;3.63;;
24813;SDS011;12904;50.088;11.414;2023-06-14T07:37:44;3.67;;;2.92;;
24813;SDS011;12904;50.088;11.414;2023-06-14T07:40:11;2.85;;;2.55;;
24813;SDS011;12904;50.088;11.414;2023-06-14T07:42:38;4.88;;;2.90;;
24813;SDS011;12904;50.088;11.414;2023-06-14T07:45:05;3.42;;;2.80;;
24813;SDS011;12904;50.088;11.414;2023-06-14T07:47:31;5.20;;;2.55;;
24813;SDS011;12904;50.088;11.414;2023-06-14T07:49:57;2.70;;;2.40;;
24813;SDS011;12904;50.088;11.414;2023-06-14T07:52:23;2.70;;;1.80;;
24813;SDS011;12904;50.088;11.414;2023-06-14T07:54:48;2.88;;;2.63;;
24813;SDS011;12904;50.088;11.414;2023-06-14T07:57:14;5.53;;;2.67;;
24813;SDS011;12904;50.088;11.414;2023-06-14T07:59:39;3.80;;;2.20;;
24813;SDS011;12904;50.088;11.414;2023-06-14T08:02:05;4.68;;;2.80;;
24813;SDS011;12904;50.088;11.414;2023-06-14T08:04:31;5.20;;;2.38;;
24813;SDS011;12904;50.088;11.414;2023-06-14T08:06:57;3.92;;;2.45;;
24813;SDS011;12904;50.088;11.414;2023-06-14T08:09:23;3.45;;;2.63;;
24813;SDS011;12904;50.088;11.414;2023-06-14T08:11:50;3.17;;;2.10;;
24813;SDS011;12904;50.088;11.414;2023-06-14T08:14:16;6.15;;;2.30;;
24813;SDS011;12904;50.088;11.414;2023-06-14T08:16:41;4.43;;;2.47;;
24813;SDS011;12904;50.088;11.414;2023-06-14T08:19:07;2.67;;;1.90;;
24813;SDS011;12904;50.088;11.414;2023-06-14T08:21:33;4.30;;;2.33;;
24813;SDS011;12904;50.088;11.414;2023-06-14T08:24:01;4.07;;;2.58;;
24813;SDS011;12904;50.088;11.414;2023-06-14T08:26:27;2.97;;;2.20;;
24813;SDS011;12904;50.088;11.414;2023-06-14T08:28:56;6.75;;;2.22;;
24813;SDS011;12904;50.088;11.414;2023-06-14T08:31:22;2.30;;;2.10;;
24813;SDS011;12904;50.088;11.414;2023-06-14T08:33:49;4.15;;;2.10;;
24813;SDS011;12904;50.088;11.414;2023-06-14T08:36:14;3.03;;;2.03;;
24813;SDS011;12904;50.088;11.414;2023-06-14T08:38:40;2.63;;;2.00;;
24813;SDS011;12904;50.088;11.414;2023-06-14T08:41:05;2.92;;;2.05;;
24813;SDS011;12904;50.088;11.414;2023-06-14T08:43:32;3.08;;;2.70;;
24813;SDS011;12904;50.088;11.414;2023-06-14T08:45:58;2.28;;;1.95;;
24813;SDS011;12904;50.088;11.414;2023-06-14T08:48:27;2.65;;;1.98;;
24813;SDS011;12904;50.088;11.414;2023-06-14T08:50:56;2.78;;;2.22;;
24813;SDS011;12904;50.088;11.414;2023-06-14T08:53:27;2.42;;;2.22;;
24813;SDS011;12904;50.088;11.414;2023-06-14T08:55:57;2.10;;;1.92;;
24813;SDS011;12904;50.088;11.414;2023-06-14T08:58:26;2.13;;;1.92;;
24813;SDS011;12904;50.088;11.414;2023-06-14T09:00:54;3.70;;;2.05;;
24813;SDS011;12904;50.088;11.414;2023-06-14T09:03:21;3.53;;;2.17;;
24813;SDS011;12904;50.088;11.414;2023-06-14T09:05:48;2.60;;;2.40;;
24813;SDS011;12904;50.088;11.414;2023-06-14T09:08:15;2.50;;;2.30;;
24813;SDS011;12904;50.088;11.414;2023-06-14T09:10:41;4.70;;;2.42;;
24813;SDS011;12904;50.088;11.414;2023-06-14T09:13:06;1.77;;;1.67;;
24813;SDS011;12904;50.088;11.414;2023-06-14T09:15:32;2.28;;;1.95;;
24813;SDS011;12904;50.088;11.414;2023-06-14T09:18:00;4.68;;;2.42;;
24813;SDS011;12904;50.088;11.414;2023-06-14T09:20:28;3.65;;;2.55;;
24813;SDS011;12904;50.088;11.414;2023-06-14T09:22:55;2.45;;;2.25;;
24813;SDS011;12904;50.088;11.414;2023-06-14T09:25:21;2.35;;;2.15;;
24813;SDS011;12904;50.088;11.414;2023-06-14T09:27:47;2.28;;;1.98;;
24813;SDS011;12904;50.088;11.414;2023-06-14T09:30:13;5.35;;;2.30;;
24813;SDS011;12904;50.088;11.414;2023-06-14T09:32:39;2.95;;;2.53;;
24813;SDS011;12904;50.088;11.414;2023-06-14T09:35:08;2.35;;;2.10;;
24813;SDS011;12904;50.088;11.414;2023-06-14T09:37:34;2.97;;;2.05;;
24813;SDS011;12904;50.088;11.414;2023-06-14T09:40:02;2.42;;;1.92;;
24813;SDS011;12904;50.088;11.414;2023-06-14T09:42:28;2.33;;;2.08;;
24813;SDS011;12904;50.088;11.414;2023-06-14T09:44:55;6.03;;;2.40;;
24813;SDS011;12904;50.088;11.414;2023-06-14T09:47:22;6.55;;;2.67;;
24813;SDS011;12904;50.088;11.414;2023-06-14T09:49:49;5.50;;;2.30;;
24813;SDS011;12904;50.088;11.414;2023-06-14T09:52:17;3.05;;;2.20;;
24813;SDS011;12904;50.088;11.414;2023-06-14T09:54:44;5.03;;;1.65;;
24813;SDS011;12904;50.088;11.414;2023-06-14T09:57:23;2.80;;;2.50;;
24813;SDS011;12904;50.088;11.414;2023-06-14T09:59:52;2.33;;;2.08;;
24813;SDS011;12904;50.088;11.414;2023-06-14T10:02:22;3.47;;;2.40;;
24813;SDS011;12904;50.088;11.414;2023-06-14T10:05:12;3.95;;;2.05;;
24813;SDS011;12904;50.088;11.414;2023-06-14T10:10:24;2.25;;;2.05;;
24813;SDS011;12904;50.088;11.414;2023-06-14T10:12:50;4.63;;;1.88;;
24813;SDS011;12904;50.088;11.414;2023-06-14T10:15:18;2.20;;;2.00;;
24813;SDS011;12904;50.088;11.414;2023-06-14T10:17:50;4.88;;;2.28;;
24813;SDS011;12904;50.088;11.414;2023-06-14T10:20:32;2.53;;;2.33;;
24813;SDS011;12904;50.088;11.414;2023-06-14T10:23:22;2.22;;;2.03;;
24813;SDS011;12904;50.088;11.414;2023-06-14T10:25:50;2.67;;;2.10;;
24813;SDS011;12904;50.088;11.414;2023-06-14T10:28:21;2.30;;;1.83;;
24813;SDS011;12904;50.088;11.414;2023-06-14T10:33:35;2.15;;;1.77;;
24813;SDS011;12904;50.088;11.414;2023-06-14T10:38:57;2.30;;;2.10;;
24813;SDS011;12904;50.088;11.414;2023-06-14T10:41:23;3.13;;;1.90;;
24813;SDS011;12904;50.088;11.414;2023-06-14T10:43:52;4.32;;;2.22;;
24813;SDS011;12904;50.088;11.414;2023-06-14T10:46:35;3.15;;;2.00;;
24813;SDS011;12904;50.088;11.414;2023-06-14T10:49:01;3.10;;;2.00;;
24813;SDS011;12904;50.088;11.414;2023-06-14T10:51:29;3.15;;;1.95;;
24813;SDS011;12904;50.088;11.414;2023-06-14T10:53:55;2.85;;;1.90;;
24813;SDS011;12904;50.088;11.414;2023-06-14T10:58:54;2.20;;;1.58;;
24813;SDS011;12904;50.088;11.414;2023-06-14T11:01:23;2.67;;;2.05;;
24813;SDS011;12904;50.088;11.414;2023-06-14T11:04:07;3.10;;;1.77;;
24813;SDS011;12904;50.088;11.414;2023-06-14T11:11:48;3.50;;;2.08;;
24813;SDS011;12904;50.088;11.414;2023-06-14T11:14:15;3.28;;;1.88;;
24813;SDS011;12904;50.088;11.414;2023-06-14T11:16:41;2.00;;;1.80;;
24813;SDS011;12904;50.088;11.414;2023-06-14T11:19:07;3.03;;;1.95;;
24813;SDS011;12904;50.088;11.414;2023-06-14T11:21:33;1.80;;;1.55;;
24813;SDS011;12904;50.088;11.414;2023-06-14T11:23:58;3.47;;;1.92;;
24813;SDS011;12904;50.088;11.414;2023-06-14T11:26:28;3.63;;;2.20;;
24813;SDS011;12904;50.088;11.414;2023-06-14T11:28:55;2.70;;;1.88;;
24813;SDS011;12904;50.088;11.414;2023-06-14T11:31:22;3.13;;;1.60;;
24813;SDS011;12904;50.088;11.414;2023-06-14T11:33:51;2.22;;;1.75;;
24813;SDS011;12904;50.088;11.414;2023-06-14T11:36:19;2.75;;;1.63;;
24813;SDS011;12904;50.088;11.414;2023-06-14T11:38:45;2.78;;;1.85;;
24813;SDS011;12904;50.088;11.414;2023-06-14T11:41:10;2.33;;;1.88;;
24813;SDS011;12904;50.088;11.414;2023-06-14T11:43:36;2.50;;;2.00;;
24813;SDS011;12904;50.088;11.414;2023-06-14T11:46:02;3.15;;;1.80;;
24813;SDS011;12904;50.088;11.414;2023-06-14T11:48:41;6.05;;;1.80;;
24813;SDS011;12904;50.088;11.414;2023-06-14T11:51:07;2.95;;;2.25;;
24813;SDS011;12904;50.088;11.414;2023-06-14T11:53:33;5.45;;;2.42;;
24813;SDS011;12904;50.088;11.414;2023-06-14T11:55:59;2.47;;;2.10;;
24813;SDS011;12904;50.088;11.414;2023-06-14T11:58:26;3.05;;;1.90;;
24813;SDS011;12904;50.088;11.414;2023-06-14T12:00:53;2.33;;;2.13;;
24813;SDS011;12904;50.088;11.414;2023-06-14T12:03:22;2.20;;;2.00;;
24813;SDS011;12904;50.088;11.414;2023-06-14T12:05:50;2.42;;;1.95;;
24813;SDS011;12904;50.088;11.414;2023-06-14T12:08:32;2.58;;;2.17;;
24813;SDS011;12904;50.088;11.414;2023-06-14T12:11:05;2.40;;;2.10;;
24813;SDS011;12904;50.088;11.414;2023-06-14T12:13:33;1.95;;;1.73;;
24813;SDS011;12904;50.088;11.414;2023-06-14T12:15:59;5.07;;;2.25;;
24813;SDS011;12904;50.088;11.414;2023-06-14T12:18:35;2.22;;;2.10;;
24813;SDS011;12904;50.088;11.414;2023-06-14T12:21:06;3.30;;;1.90;;
24813;SDS011;12904;50.088;11.414;2023-06-14T12:26:17;1.70;;;1.60;;
24813;SDS011;12904;50.088;11.414;2023-06-14T12:28:44;1.80;;;1.70;;
24813;SDS011;12904;50.088;11.414;2023-06-14T12:31:11;3.55;;;1.88;;
24813;SDS011;12904;50.088;11.414;2023-06-14T12:33:38;2.20;;;1.77;;
24813;SDS011;12904;50.088;11.414;2023-06-14T12:36:06;4.03;;;1.95;;
24813;SDS011;12904;50.088;11.414;2023-06-14T12:38:33;2.40;;;1.77;;
24813;SDS011;12904;50.088;11.414;2023-06-14T12:40:59;2.75;;;2.10;;
24813;SDS011;12904;50.088;11.414;2023-06-14T12:43:25;2.40;;;1.90;;
24813;SDS011;12904;50.088;11.414;2023-06-14T12:45:51;3.15;;;1.83;;
24813;SDS011;12904;50.088;11.414;2023-06-14T12:48:16;2.20;;;1.70;;
24813;SDS011;12904;50.088;11.414;2023-06-14T12:50:42;2.65;;;2.15;;
24813;SDS011;12904;50.088;11.414;2023-06-14T12:53:08;2.42;;;2.17;;
24813;SDS011;12904;50.088;11.414;2023-06-14T12:55:34;2.40;;;1.92;;
24813;SDS011;12904;50.088;11.414;2023-06-14T12:57:59;2.05;;;1.85;;
24813;SDS011;12904;50.088;11.414;2023-06-14T13:00:25;2.30;;;2.05;;
24813;SDS011;12904;50.088;11.414;2023-06-14T13:02:51;3.78;;;1.77;;
24813;SDS011;12904;50.088;11.414;2023-06-14T13:05:17;3.05;;;2.17;;
24813;SDS011;12904;50.088;11.414;2023-06-14T13:07:43;2.28;;;1.90;;
24813;SDS011;12904;50.088;11.414;2023-06-14T13:10:09;2.40;;;1.98;;
24813;SDS011;12904;50.088;11.414;2023-06-14T13:12:35;3.38;;;1.83;;
24813;SDS011;12904;50.088;11.414;2023-06-14T13:15:00;2.42;;;1.70;;
24813;SDS011;12904;50.088;11.414;2023-06-14T13:17:26;3.08;;;1.90;;
24813;SDS011;12904;50.088;11.414;2023-06-14T13:19:52;2.55;;;1.80;;
24813;SDS011;12904;50.088;11.414;2023-06-14T13:22:17;9.45;;;1.90;;
24813;SDS011;12904;50.088;11.414;2023-06-14T13:24:43;2.85;;;1.40;;
24813;SDS011;12904;50.088;11.414;2023-06-14T13:27:09;1.50;;;1.40;;
24813;SDS011;12904;50.088;11.414;2023-06-14T13:29:35;4.65;;;1.90;;
24813;SDS011;12904;50.088;11.414;2023-06-14T13:32:02;3.35;;;1.65;;
24813;SDS011;12904;50.088;11.414;2023-06-14T13:34:28;2.97;;;2.30;;
24813;SDS011;12904;50.088;11.414;2023-06-14T13:36:53;1.80;;;1.30;;
24813;SDS011;12904;50.088;11.414;2023-06-14T13:39:19;2.03;;;1.75;;
24813;SDS011;12904;50.088;11.414;2023-06-14T13:41:45;2.33;;;1.73;;
24813;SDS011;12904;50.088;11.414;2023-06-14T13:44:10;4.00;;;2.00;;
24813;SDS011;12904;50.088;11.414;2023-06-14T13:46:40;2.63;;;1.88;;
24813;SDS011;12904;50.088;11.414;2023-06-14T13:49:07;1.70;;;1.60;;
24813;SDS011;12904;50.088;11.414;2023-06-14T13:51:33;2.20;;;1.63;;
24813;SDS011;12904;50.088;11.414;2023-06-14T13:54:00;2.05;;;1.63;;
24813;SDS011;12904;50.088;11.414;2023-06-14T13:56:26;2.80;;;1.70;;
24813;SDS011;12904;50.088;11.414;2023-06-14T13:58:52;3.15;;;1.90;;
24813;SDS011;12904;50.088;11.414;2023-06-14T14:01:17;2.25;;;2.03;;
24813;SDS011;12904;50.088;11.414;2023-06-14T14:03:45;4.28;;;1.80;;
24813;SDS011;12904;50.088;11.414;2023-06-14T14:06:11;5.40;;;1.90;;
24813;SDS011;12904;50.088;11.414;2023-06-14T14:08:38;3.05;;;2.08;;
24813;SDS011;12904;50.088;11.414;2023-06-14T14:11:04;2.33;;;1.75;;
24813;SDS011;12904;50.088;11.414;2023-06-14T14:13:30;4.03;;;1.92;;
24813;SDS011;12904;50.088;11.414;2023-06-14T14:15:56;5.57;;;1.90;;
24813;SDS011;12904;50.088;11.414;2023-06-14T14:18:22;3.78;;;2.78;;
24813;SDS011;12904;50.088;11.414;2023-06-14T14:20:48;2.28;;;2.05;;
24813;SDS011;12904;50.088;11.414;2023-06-14T14:23:14;4.50;;;1.98;;
24813;SDS011;12904;50.088;11.414;2023-06-14T14:25:40;6.88;;;2.63;;
24813;SDS011;12904;50.088;11.414;2023-06-14T14:28:05;4.13;;;1.88;;
24813;SDS011;12904;50.088;11.414;2023-06-14T14:30:31;5.95;;;2.00;;
24813;SDS011;12904;50.088;11.414;2023-06-14T14:32:57;2.15;;;1.80;;
24813;SDS011;12904;50.088;11.414;2023-06-14T14:35:23;4.85;;;2.75;;
24813;SDS011;12904;50.088;11.414;2023-06-14T14:37:51;2.55;;;1.77;;
24813;SDS011;12904;50.088;11.414;2023-06-14T14:40:17;2.30;;;2.10;;
24813;SDS011;12904;50.088;11.414;2023-06-14T14:42:42;2.85;;;2.10;;
24813;SDS011;12904;50.088;11.414;2023-06-14T14:45:08;7.63;;;2.33;;
24813;SDS011;12904;50.088;11.414;2023-06-14T14:47:34;7.82;;;2.13;;
24813;SDS011;12904;50.088;11.414;2023-06-14T14:49:59;2.10;;;1.90;;
24813;SDS011;12904;50.088;11.414;2023-06-14T14:52:25;4.18;;;2.25;;
24813;SDS011;12904;50.088;11.414;2023-06-14T14:54:51;3.35;;;2.03;;
24813;SDS011;12904;50.088;11.414;2023-06-14T14:57:18;2.78;;;2.22;;